sensor_id;sensor_type;location;lat;lon;timestamp;pressure;altitude;pressure_sealevel;temperature;humidity
83100;BME280;72972;51.784;4.660;2024-03-02T00:01:14;99976.16;;;6.61;96.48
83100;BME280;72972;51.784;4.660;2024-03-02T00:03:42;99978.25;;;6.59;97.07
83100;BME280;72972;51.784;4.660;2024-03-02T00:06:08;99981.78;;;6.60;96.90
83100;BME280;72972;51.784;4.660;2024-03-02T00:08:33;99976.09;;;6.55;97.30
83100;BME280;72972;51.784;4.660;2024-03-02T00:11:01;99989.53;;;6.56;96.63
83100;BME280;72972;51.784;4.660;2024-03-02T00:13:30;100004.81;;;6.57;96.90
83100;BME280;72972;51.784;4.660;2024-03-02T00:15:57;99996.94;;;6.48;97.27
83100;BME280;72972;51.784;4.660;2024-03-02T00:18:31;100000.06;;;6.45;97.96
83100;BME280;72972;51.784;4.660;2024-03-02T00:20:57;100000.72;;;6.47;97.49
83100;BME280;72972;51.784;4.660;2024-03-02T00:23:25;100009.75;;;6.47;97.78
83100;BME280;72972;51.784;4.660;2024-03-02T00:25:56;99994.41;;;6.46;97.66
83100;BME280;72972;51.784;4.660;2024-03-02T00:28:28;99998.56;;;6.42;98.51
83100;BME280;72972;51.784;4.660;2024-03-02T00:31:32;99982.63;;;6.39;98.61
83100;BME280;72972;51.784;4.660;2024-03-02T00:33:51;99989.09;;;6.38;98.74
83100;BME280;72972;51.784;4.660;2024-03-02T00:36:24;99976.25;;;6.32;98.24
83100;BME280;72972;51.784;4.660;2024-03-02T00:38:52;99963.47;;;6.33;98.83
83100;BME280;72972;51.784;4.660;2024-03-02T00:41:29;99968.81;;;6.26;98.21
83100;BME280;72972;51.784;4.660;2024-03-02T00:44:00;99979.06;;;6.24;98.20
83100;BME280;72972;51.784;4.660;2024-03-02T00:46:28;99983.94;;;6.29;98.20
83100;BME280;72972;51.784;4.660;2024-03-02T00:49:00;99986.00;;;6.27;98.09
83100;BME280;72972;51.784;4.660;2024-03-02T00:51:28;99992.31;;;6.27;98.64
83100;BME280;72972;51.784;4.660;2024-03-02T00:53:58;99990.59;;;6.26;98.58
83100;BME280;72972;51.784;4.660;2024-03-02T00:56:25;99990.16;;;6.23;98.83
83100;BME280;72972;51.784;4.660;2024-03-02T00:58:52;99980.47;;;6.20;98.67
83100;BME280;72972;51.784;4.660;2024-03-02T01:01:18;99987.16;;;6.18;99.22
83100;BME280;72972;51.784;4.660;2024-03-02T01:03:47;99990.34;;;6.21;98.57
83100;BME280;72972;51.784;4.660;2024-03-02T01:06:15;99989.31;;;6.22;98.75
83100;BME280;72972;51.784;4.660;2024-03-02T01:08:41;99977.13;;;6.18;98.94
83100;BME280;72972;51.784;4.660;2024-03-02T01:11:07;99979.28;;;6.23;98.95
83100;BME280;72972;51.784;4.660;2024-03-02T01:13:33;99980.84;;;6.17;98.63
83100;BME280;72972;51.784;4.660;2024-03-02T01:15:59;99991.94;;;6.16;98.43
83100;BME280;72972;51.784;4.660;2024-03-02T01:18:26;100005.34;;;6.17;98.58
83100;BME280;72972;51.784;4.660;2024-03-02T01:20:52;100009.59;;;6.20;98.65
83100;BME280;72972;51.784;4.660;2024-03-02T01:23:24;100013.53;;;6.17;98.66
83100;BME280;72972;51.784;4.660;2024-03-02T01:25:51;100024.41;;;6.17;98.36
83100;BME280;72972;51.784;4.660;2024-03-02T01:28:18;100025.44;;;6.16;97.74
83100;BME280;72972;51.784;4.660;2024-03-02T01:30:44;99999.47;;;6.14;98.11
83100;BME280;72972;51.784;4.660;2024-03-02T01:33:10;100004.72;;;6.15;97.95
83100;BME280;72972;51.784;4.660;2024-03-02T01:35:36;100006.97;;;6.12;98.07
83100;BME280;72972;51.784;4.660;2024-03-02T01:38:03;99984.16;;;6.13;97.96
83100;BME280;72972;51.784;4.660;2024-03-02T01:40:32;100007.34;;;6.09;97.70
83100;BME280;72972;51.784;4.660;2024-03-02T01:42:58;100032.13;;;6.14;97.68
83100;BME280;72972;51.784;4.660;2024-03-02T01:45:24;100034.19;;;6.12;97.77
83100;BME280;72972;51.784;4.660;2024-03-02T01:47:50;100020.09;;;6.08;98.51
83100;BME280;72972;51.784;4.660;2024-03-02T01:50:16;100011.09;;;6.08;98.00
83100;BME280;72972;51.784;4.660;2024-03-02T01:52:49;100003.13;;;6.06;98.40
83100;BME280;72972;51.784;4.660;2024-03-02T01:55:15;100002.75;;;6.09;98.28
83100;BME280;72972;51.784;4.660;2024-03-02T01:57:41;100006.88;;;6.05;98.18
83100;BME280;72972;51.784;4.660;2024-03-02T02:00:17;100019.47;;;6.06;98.77
83100;BME280;72972;51.784;4.660;2024-03-02T02:02:44;100013.34;;;6.04;98.97
83100;BME280;72972;51.784;4.660;2024-03-02T02:05:10;100013.72;;;6.01;98.08
83100;BME280;72972;51.784;4.660;2024-03-02T02:07:35;100029.69;;;6.04;98.25
83100;BME280;72972;51.784;4.660;2024-03-02T02:10:01;100024.63;;;6.01;98.48
83100;BME280;72972;51.784;4.660;2024-03-02T02:12:27;100030.06;;;6.01;98.48
83100;BME280;72972;51.784;4.660;2024-03-02T02:14:53;100030.91;;;6.02;98.02
83100;BME280;72972;51.784;4.660;2024-03-02T02:17:19;100026.59;;;6.07;98.31
83100;BME280;72972;51.784;4.660;2024-03-02T02:19:45;100036.81;;;6.05;98.58
83100;BME280;72972;51.784;4.660;2024-03-02T02:22:11;100032.41;;;6.04;98.39
83100;BME280;72972;51.784;4.660;2024-03-02T02:24:40;100033.44;;;6.03;97.60
83100;BME280;72972;51.784;4.660;2024-03-02T02:27:08;100042.63;;;6.02;97.92
83100;BME280;72972;51.784;4.660;2024-03-02T02:29:34;100030.44;;;5.98;97.93
83100;BME280;72972;51.784;4.660;2024-03-02T02:32:00;100037.00;;;6.04;98.19
83100;BME280;72972;51.784;4.660;2024-03-02T02:34:26;100041.81;;;6.02;98.27
83100;BME280;72972;51.784;4.660;2024-03-02T02:36:52;100037.00;;;6.04;97.91
83100;BME280;72972;51.784;4.660;2024-03-02T02:39:20;100033.06;;;6.06;97.87
83100;BME280;72972;51.784;4.660;2024-03-02T02:41:46;100020.47;;;6.05;97.75
83100;BME280;72972;51.784;4.660;2024-03-02T02:44:12;100019.00;;;6.03;97.21
83100;BME280;72972;51.784;4.660;2024-03-02T02:46:39;100023.38;;;6.04;97.49
83100;BME280;72972;51.784;4.660;2024-03-02T02:49:05;100024.91;;;6.06;98.05
83100;BME280;72972;51.784;4.660;2024-03-02T02:51:30;100012.69;;;6.02;96.91
83100;BME280;72972;51.784;4.660;2024-03-02T02:53:56;100013.72;;;6.01;97.08
83100;BME280;72972;51.784;4.660;2024-03-02T02:56:22;100013.72;;;6.01;97.57
83100;BME280;72972;51.784;4.660;2024-03-02T02:58:48;100009.97;;;6.02;97.44
83100;BME280;72972;51.784;4.660;2024-03-02T03:01:15;100012.69;;;6.02;97.48
83100;BME280;72972;51.784;4.660;2024-03-02T03:03:43;100008.78;;;6.05;96.91
83100;BME280;72972;51.784;4.660;2024-03-02T03:06:10;100011.50;;;6.05;97.33
83100;BME280;72972;51.784;4.660;2024-03-02T03:08:36;100018.59;;;6.06;97.32
83100;BME280;72972;51.784;4.660;2024-03-02T03:11:02;100015.22;;;6.04;97.30
83100;BME280;72972;51.784;4.660;2024-03-02T03:13:27;100012.69;;;6.02;97.53
83100;BME280;72972;51.784;4.660;2024-03-02T03:15:53;100015.41;;;6.02;96.86
83100;BME280;72972;51.784;4.660;2024-03-02T03:18:19;100023.00;;;6.07;96.98
83100;BME280;72972;51.784;4.660;2024-03-02T03:20:45;100020.47;;;6.05;96.19
83100;BME280;72972;51.784;4.660;2024-03-02T03:23:11;100032.78;;;6.01;95.99
83100;BME280;72972;51.784;4.660;2024-03-02T03:25:41;100030.91;;;6.02;96.00
83100;BME280;72972;51.784;4.660;2024-03-02T03:28:07;100023.31;;;5.97;95.71
83100;BME280;72972;51.784;4.660;2024-03-02T03:30:38;100032.88;;;5.93;95.86
83100;BME280;72972;51.784;4.660;2024-03-02T03:33:07;100035.59;;;5.93;96.85
83100;BME280;72972;51.784;4.660;2024-03-02T03:35:33;100044.97;;;5.91;96.81
83100;BME280;72972;51.784;4.660;2024-03-02T03:37:59;100040.47;;;5.83;96.13
83100;BME280;72972;51.784;4.660;2024-03-02T03:40:25;100051.69;;;5.80;96.51
83100;BME280;72972;51.784;4.660;2024-03-02T03:42:51;100054.59;;;5.79;96.38
83100;BME280;72972;51.784;4.660;2024-03-02T03:45:17;100055.59;;;5.78;96.95
83100;BME280;72972;51.784;4.660;2024-03-02T03:47:42;100051.03;;;5.78;96.95
83100;BME280;72972;51.784;4.660;2024-03-02T03:50:09;100054.41;;;5.80;97.01
83100;BME280;72972;51.784;4.660;2024-03-02T03:52:35;100051.34;;;5.83;96.53
83100;BME280;72972;51.784;4.660;2024-03-02T03:55:01;100050.97;;;5.86;96.78
83100;BME280;72972;51.784;4.660;2024-03-02T03:57:27;100056.59;;;5.85;97.22
83100;BME280;72972;51.784;4.660;2024-03-02T03:59:53;100050.13;;;5.86;96.08
83100;BME280;72972;51.784;4.660;2024-03-02T04:02:19;100052.00;;;5.85;96.52
83100;BME280;72972;51.784;4.660;2024-03-02T04:04:45;100046.91;;;5.82;96.17
83100;BME280;72972;51.784;4.660;2024-03-02T04:07:11;100047.25;;;5.79;96.90
83100;BME280;72972;51.784;4.660;2024-03-02T04:09:37;100039.09;;;5.79;96.81
83100;BME280;72972;51.784;4.660;2024-03-02T04:12:03;100054.41;;;5.80;96.45
83100;BME280;72972;51.784;4.660;2024-03-02T04:14:29;100049.16;;;5.79;96.10
83100;BME280;72972;51.784;4.660;2024-03-02T04:16:54;100044.09;;;5.76;96.45
83100;BME280;72972;51.784;4.660;2024-03-02T04:19:20;100047.63;;;5.76;96.08
83100;BME280;72972;51.784;4.660;2024-03-02T04:21:46;100046.13;;;5.74;96.46
83100;BME280;72972;51.784;4.660;2024-03-02T04:24:12;100046.88;;;5.68;96.76
83100;BME280;72972;51.784;4.660;2024-03-02T04:26:38;100050.66;;;5.67;96.17
83100;BME280;72972;51.784;4.660;2024-03-02T04:29:06;100053.38;;;5.67;95.96
83100;BME280;72972;51.784;4.660;2024-03-02T04:31:32;100050.09;;;5.71;95.88
83100;BME280;72972;51.784;4.660;2024-03-02T04:33:57;100055.16;;;5.74;95.68
83100;BME280;72972;51.784;4.660;2024-03-02T04:36:23;100048.38;;;5.70;96.44
83100;BME280;72972;51.784;4.660;2024-03-02T04:38:49;100058.63;;;5.68;95.81
83100;BME280;72972;51.784;4.660;2024-03-02T04:41:15;100061.34;;;5.68;95.92
83100;BME280;72972;51.784;4.660;2024-03-02T04:43:40;100060.47;;;5.68;95.75
83100;BME280;72972;51.784;4.660;2024-03-02T04:46:09;100074.28;;;5.66;95.89
83100;BME280;72972;51.784;4.660;2024-03-02T04:48:42;100066.28;;;5.65;95.80
83100;BME280;72972;51.784;4.660;2024-03-02T04:51:08;100055.59;;;5.63;95.27
83100;BME280;72972;51.784;4.660;2024-03-02T04:53:34;100064.06;;;5.68;95.95
83100;BME280;72972;51.784;4.660;2024-03-02T04:56:00;100073.91;;;5.69;95.41
83100;BME280;72972;51.784;4.660;2024-03-02T04:58:44;100074.63;;;5.63;96.40
83100;BME280;72972;51.784;4.660;2024-03-02T05:01:10;100077.53;;;5.62;95.15
83100;BME280;72972;51.784;4.660;2024-03-02T05:03:38;100073.97;;;5.61;94.88
83100;BME280;72972;51.784;4.660;2024-03-02T05:06:04;100073.97;;;5.61;95.61
83100;BME280;72972;51.784;4.660;2024-03-02T05:08:30;100081.38;;;5.67;95.26
83100;BME280;72972;51.784;4.660;2024-03-02T05:10:56;100072.47;;;5.59;94.78
83100;BME280;72972;51.784;4.660;2024-03-02T05:13:41;100089.47;;;5.61;95.55
83100;BME280;72972;51.784;4.660;2024-03-02T05:16:07;100095.19;;;5.66;95.07
83100;BME280;72972;51.784;4.660;2024-03-02T05:18:32;100092.81;;;5.63;94.80
83100;BME280;72972;51.784;4.660;2024-03-02T05:20:58;100089.47;;;5.61;94.93
83100;BME280;72972;51.784;4.660;2024-03-02T05:23:24;100096.41;;;5.63;94.90
83100;BME280;72972;51.784;4.660;2024-03-02T05:25:50;100099.13;;;5.63;94.57
83100;BME280;72972;51.784;4.660;2024-03-02T05:28:16;100108.97;;;5.64;95.08
83100;BME280;72972;51.784;4.660;2024-03-02T05:30:42;100107.09;;;5.65;95.93
83100;BME280;72972;51.784;4.660;2024-03-02T05:33:08;100108.97;;;5.64;95.47
83100;BME280;72972;51.784;4.660;2024-03-02T05:35:34;100108.59;;;5.67;94.79
83100;BME280;72972;51.784;4.660;2024-03-02T05:37:59;100106.06;;;5.66;95.36
83100;BME280;72972;51.784;4.660;2024-03-02T05:40:25;100101.47;;;5.66;95.24
83100;BME280;72972;51.784;4.660;2024-03-02T05:42:51;100104.88;;;5.68;95.36
83100;BME280;72972;51.784;4.660;2024-03-02T05:45:17;100098.19;;;5.71;94.78
83100;BME280;72972;51.784;4.660;2024-03-02T05:47:43;100106.19;;;5.72;95.10
83100;BME280;72972;51.784;4.660;2024-03-02T05:50:09;100101.97;;;5.70;95.32
83100;BME280;72972;51.784;4.660;2024-03-02T05:52:35;100102.78;;;5.70;95.39
83100;BME280;72972;51.784;4.660;2024-03-02T05:55:00;100101.78;;;5.71;95.59
83100;BME280;72972;51.784;4.660;2024-03-02T05:57:26;100107.22;;;5.71;95.23
83100;BME280;72972;51.784;4.660;2024-03-02T06:00:20;100115.94;;;5.67;95.07
83100;BME280;72972;51.784;4.660;2024-03-02T06:02:45;100111.69;;;5.64;95.24
83100;BME280;72972;51.784;4.660;2024-03-02T06:05:11;100106.53;;;5.69;94.78
83100;BME280;72972;51.784;4.660;2024-03-02T06:07:37;100107.28;;;5.63;94.48
83100;BME280;72972;51.784;4.660;2024-03-02T06:10:02;100110.84;;;5.64;94.33
83100;BME280;72972;51.784;4.660;2024-03-02T06:12:31;100118.72;;;5.59;94.61
83100;BME280;72972;51.784;4.660;2024-03-02T06:14:56;100114.84;;;5.53;93.64
83100;BME280;72972;51.784;4.660;2024-03-02T06:17:22;100114.72;;;5.47;94.55
83100;BME280;72972;51.784;4.660;2024-03-02T06:19:47;100119.81;;;5.50;93.76
83100;BME280;72972;51.784;4.660;2024-03-02T06:22:13;100130.19;;;5.46;94.08
83100;BME280;72972;51.784;4.660;2024-03-02T06:24:39;100130.00;;;5.47;93.64
83100;BME280;72972;51.784;4.660;2024-03-02T06:27:05;100134.22;;;5.50;93.41
83100;BME280;72972;51.784;4.660;2024-03-02T06:29:34;100131.50;;;5.50;93.31
83100;BME280;72972;51.784;4.660;2024-03-02T06:31:59;100134.03;;;5.52;93.77
83100;BME280;72972;51.784;4.660;2024-03-02T06:34:25;100138.97;;;5.56;93.19
83100;BME280;72972;51.784;4.660;2024-03-02T06:36:51;100141.97;;;5.61;92.91
83100;BME280;72972;51.784;4.660;2024-03-02T06:39:17;100137.00;;;5.65;92.14
83100;BME280;72972;51.784;4.660;2024-03-02T06:41:43;100135.06;;;5.73;91.57
83100;BME280;72972;51.784;4.660;2024-03-02T06:44:08;100124.84;;;5.75;91.60
83100;BME280;72972;51.784;4.660;2024-03-02T06:46:35;100139.75;;;5.79;91.01
83100;BME280;72972;51.784;4.660;2024-03-02T06:49:00;100136.97;;;5.73;91.72
83100;BME280;72972;51.784;4.660;2024-03-02T06:51:28;100139.88;;;5.71;91.14
83100;BME280;72972;51.784;4.660;2024-03-02T06:53:54;100143.69;;;5.85;90.57
83100;BME280;72972;51.784;4.660;2024-03-02T06:56:21;100157.03;;;5.94;90.03
83100;BME280;72972;51.784;4.660;2024-03-02T06:58:47;100157.41;;;6.06;89.37
83100;BME280;72972;51.784;4.660;2024-03-02T07:01:13;100156.56;;;6.05;89.31
83100;BME280;72972;51.784;4.660;2024-03-02T07:03:39;100160.63;;;6.09;89.44
83100;BME280;72972;51.784;4.660;2024-03-02T07:06:05;100156.38;;;5.92;89.93
83100;BME280;72972;51.784;4.660;2024-03-02T07:08:31;100162.91;;;5.83;90.23
83100;BME280;72972;51.784;4.660;2024-03-02T07:11:03;100161.53;;;5.79;90.70
83100;BME280;72972;51.784;4.660;2024-03-02T07:13:29;100156.81;;;5.73;90.88
83100;BME280;72972;51.784;4.660;2024-03-02T07:15:55;100142.38;;;6.32;88.98
83100;BME280;72972;51.784;4.660;2024-03-02T07:18:30;100142.44;;;7.39;83.26
83100;BME280;72972;51.784;4.660;2024-03-02T07:20:57;100124.00;;;9.13;76.58
83100;BME280;72972;51.784;4.660;2024-03-02T07:23:27;100101.16;;;11.02;69.65
83100;BME280;72972;51.784;4.660;2024-03-02T07:25:53;100117.19;;;12.35;63.11
83100;BME280;72972;51.784;4.660;2024-03-02T07:28:23;100101.88;;;12.82;61.98
83100;BME280;72972;51.784;4.660;2024-03-02T07:31:03;100103.88;;;13.70;56.81
83100;BME280;72972;51.784;4.660;2024-03-02T07:33:30;100096.78;;;15.47;52.73
83100;BME280;72972;51.784;4.660;2024-03-02T07:35:57;100112.31;;;14.63;52.45
83100;BME280;72972;51.784;4.660;2024-03-02T07:38:26;100120.09;;;13.19;58.17
83100;BME280;72972;51.784;4.660;2024-03-02T07:40:52;100093.53;;;15.67;52.09
83100;BME280;72972;51.784;4.660;2024-03-02T07:43:19;100105.19;;;17.01;47.99
83100;BME280;72972;51.784;4.660;2024-03-02T07:45:46;100108.25;;;15.84;49.74
83100;BME280;72972;51.784;4.660;2024-03-02T07:48:12;100090.34;;;15.58;49.83
83100;BME280;72972;51.784;4.660;2024-03-02T07:50:39;100093.66;;;16.38;48.78
83100;BME280;72972;51.784;4.660;2024-03-02T07:53:05;100115.06;;;16.43;47.59
83100;BME280;72972;51.784;4.660;2024-03-02T07:55:31;100128.69;;;15.15;51.23
83100;BME280;72972;51.784;4.660;2024-03-02T07:57:57;100179.66;;;12.71;58.56
83100;BME280;72972;51.784;4.660;2024-03-02T08:00:24;100177.88;;;10.77;64.78
83100;BME280;72972;51.784;4.660;2024-03-02T08:02:51;100170.72;;;10.04;68.56
83100;BME280;72972;51.784;4.660;2024-03-02T08:05:18;100171.94;;;9.76;70.81
83100;BME280;72972;51.784;4.660;2024-03-02T08:07:47;100175.03;;;9.47;71.73
83100;BME280;72972;51.784;4.660;2024-03-02T08:10:13;100172.81;;;9.10;74.39
83100;BME280;72972;51.784;4.660;2024-03-02T08:12:39;100184.13;;;9.00;74.58
83100;BME280;72972;51.784;4.660;2024-03-02T08:15:06;100178.50;;;8.74;75.47
83100;BME280;72972;51.784;4.660;2024-03-02T08:17:32;100172.84;;;8.75;76.55
83100;BME280;72972;51.784;4.660;2024-03-02T08:19:58;100174.84;;;8.60;76.77
83100;BME280;72972;51.784;4.660;2024-03-02T08:22:24;100180.91;;;8.56;77.66
83100;BME280;72972;51.784;4.660;2024-03-02T08:24:54;100180.63;;;8.44;77.02
83100;BME280;72972;51.784;4.660;2024-03-02T08:27:20;100173.00;;;8.33;77.86
83100;BME280;72972;51.784;4.660;2024-03-02T08:29:46;100170.00;;;8.56;78.01
83100;BME280;72972;51.784;4.660;2024-03-02T08:32:12;100169.09;;;8.49;76.73
83100;BME280;72972;51.784;4.660;2024-03-02T08:34:38;100163.78;;;8.41;77.54
83100;BME280;72972;51.784;4.660;2024-03-02T08:37:04;100164.53;;;8.56;78.26
83100;BME280;72972;51.784;4.660;2024-03-02T08:39:31;100173.88;;;8.40;76.52
83100;BME280;72972;51.784;4.660;2024-03-02T08:41:57;100170.53;;;8.45;77.33
83100;BME280;72972;51.784;4.660;2024-03-02T08:44:23;100176.75;;;8.32;77.47
83100;BME280;72972;51.784;4.660;2024-03-02T08:46:49;100171.75;;;8.36;76.98
83100;BME280;72972;51.784;4.660;2024-03-02T08:49:16;100181.72;;;8.50;77.19
83100;BME280;72972;51.784;4.660;2024-03-02T08:51:42;100173.53;;;8.56;77.09
83100;BME280;72972;51.784;4.660;2024-03-02T08:54:08;100183.47;;;8.64;76.57
83100;BME280;72972;51.784;4.660;2024-03-02T08:56:35;100189.34;;;8.61;76.43
83100;BME280;72972;51.784;4.660;2024-03-02T08:59:01;100193.59;;;8.63;76.48
83100;BME280;72972;51.784;4.660;2024-03-02T09:01:28;100191.53;;;8.72;76.40
83100;BME280;72972;51.784;4.660;2024-03-02T09:03:54;100192.53;;;8.64;76.58
83100;BME280;72972;51.784;4.660;2024-03-02T09:06:20;100184.44;;;8.77;76.45
83100;BME280;72972;51.784;4.660;2024-03-02T09:08:47;100193.06;;;8.81;77.09
83100;BME280;72972;51.784;4.660;2024-03-02T09:11:17;100184.84;;;8.74;76.79
83100;BME280;72972;51.784;4.660;2024-03-02T09:13:43;100180.44;;;8.80;76.50
83100;BME280;72972;51.784;4.660;2024-03-02T09:16:10;100191.63;;;8.85;75.80
83100;BME280;72972;51.784;4.660;2024-03-02T09:18:36;100190.13;;;8.82;75.21
83100;BME280;72972;51.784;4.660;2024-03-02T09:21:03;100196.63;;;8.81;74.88
83100;BME280;72972;51.784;4.660;2024-03-02T09:23:30;100189.75;;;8.92;75.75
83100;BME280;72972;51.784;4.660;2024-03-02T09:25:56;100191.47;;;9.00;73.95
83100;BME280;72972;51.784;4.660;2024-03-02T09:28:22;100195.44;;;8.90;74.61
83100;BME280;72972;51.784;4.660;2024-03-02T09:30:48;100199.31;;;9.09;75.16
83100;BME280;72972;51.784;4.660;2024-03-02T09:33:14;100202.28;;;9.14;73.45
83100;BME280;72972;51.784;4.660;2024-03-02T09:35:40;100194.94;;;9.21;73.92
83100;BME280;72972;51.784;4.660;2024-03-02T09:38:06;100194.94;;;9.21;73.28
83100;BME280;72972;51.784;4.660;2024-03-02T09:40:32;100197.31;;;9.37;73.50
83100;BME280;72972;51.784;4.660;2024-03-02T09:42:58;100207.38;;;9.17;72.69
83100;BME280;72972;51.784;4.660;2024-03-02T09:45:25;100211.66;;;9.39;72.34
83100;BME280;72972;51.784;4.660;2024-03-02T09:47:52;100211.84;;;9.38;73.23
83100;BME280;72972;51.784;4.660;2024-03-02T09:50:18;100219.94;;;9.52;72.55
83100;BME280;72972;51.784;4.660;2024-03-02T09:52:44;100221.84;;;9.65;71.60
83100;BME280;72972;51.784;4.660;2024-03-02T09:55:13;100223.34;;;9.74;71.22
83100;BME280;72972;51.784;4.660;2024-03-02T09:57:39;100226.28;;;9.72;70.55
83100;BME280;72972;51.784;4.660;2024-03-02T10:00:29;100218.88;;;9.66;72.00
83100;BME280;72972;51.784;4.660;2024-03-02T10:02:55;100220.59;;;9.67;70.00
83100;BME280;72972;51.784;4.660;2024-03-02T10:05:25;100223.56;;;9.66;69.09
83100;BME280;72972;51.784;4.660;2024-03-02T10:08:02;100200.81;;;9.78;68.67
83100;BME280;72972;51.784;4.660;2024-03-02T10:10:41;100194.16;;;10.13;69.66
83100;BME280;72972;51.784;4.660;2024-03-02T10:13:10;100210.19;;;10.10;69.08
83100;BME280;72972;51.784;4.660;2024-03-02T10:15:37;100190.34;;;10.21;68.39
83100;BME280;72972;51.784;4.660;2024-03-02T10:18:13;100180.47;;;10.20;67.12
83100;BME280;72972;51.784;4.660;2024-03-02T10:20:40;100169.94;;;10.30;67.06
83100;BME280;72972;51.784;4.660;2024-03-02T10:23:14;100183.84;;;10.28;66.23
83100;BME280;72972;51.784;4.660;2024-03-02T10:25:40;100181.91;;;10.48;66.20
83100;BME280;72972;51.784;4.660;2024-03-02T10:28:07;100189.50;;;10.59;65.04
83100;BME280;72972;51.784;4.660;2024-03-02T10:30:33;100178.09;;;10.62;65.13
83100;BME280;72972;51.784;4.660;2024-03-02T10:33:01;100172.84;;;10.68;64.25
83100;BME280;72972;51.784;4.660;2024-03-02T10:35:27;100175.78;;;10.59;63.37
83100;BME280;72972;51.784;4.660;2024-03-02T10:37:54;100182.78;;;10.55;63.58
83100;BME280;72972;51.784;4.660;2024-03-02T10:40:23;100169.66;;;10.64;63.07
83100;BME280;72972;51.784;4.660;2024-03-02T10:42:50;100166.06;;;10.77;62.76
83100;BME280;72972;51.784;4.660;2024-03-02T10:45:20;100166.91;;;10.71;62.86
83100;BME280;72972;51.784;4.660;2024-03-02T10:47:51;100151.56;;;10.43;60.96
83100;BME280;72972;51.784;4.660;2024-03-02T10:50:17;100159.53;;;10.64;60.62
83100;BME280;72972;51.784;4.660;2024-03-02T10:52:43;100160.56;;;10.77;60.26
83100;BME280;72972;51.784;4.660;2024-03-02T10:55:09;100154.78;;;11.04;61.55
83100;BME280;72972;51.784;4.660;2024-03-02T10:57:52;100163.59;;;11.19;60.18
83100;BME280;72972;51.784;4.660;2024-03-02T11:00:32;100158.97;;;11.57;61.38
83100;BME280;72972;51.784;4.660;2024-03-02T11:03:05;100160.06;;;11.50;61.40
83100;BME280;72972;51.784;4.660;2024-03-02T11:05:34;100149.59;;;11.34;61.02
83100;BME280;72972;51.784;4.660;2024-03-02T11:08:08;100160.06;;;11.12;61.99
83100;BME280;72972;51.784;4.660;2024-03-02T11:10:41;100166.25;;;11.39;63.13
83100;BME280;72972;51.784;4.660;2024-03-02T11:13:14;100163.94;;;11.36;61.19
83100;BME280;72972;51.784;4.660;2024-03-02T11:15:43;100166.38;;;11.13;61.07
83100;BME280;72972;51.784;4.660;2024-03-02T11:18:10;100173.06;;;11.30;61.39
83100;BME280;72972;51.784;4.660;2024-03-02T11:20:39;100161.06;;;11.24;60.86
83100;BME280;72972;51.784;4.660;2024-03-02T11:23:06;100159.19;;;11.18;60.29
83100;BME280;72972;51.784;4.660;2024-03-02T11:25:36;100165.69;;;11.24;60.21
83100;BME280;72972;51.784;4.660;2024-03-02T11:28:08;100163.97;;;11.29;60.55
83100;BME280;72972;51.784;4.660;2024-03-02T11:33:05;100151.97;;;11.24;59.49
83100;BME280;72972;51.784;4.660;2024-03-02T11:35:38;100145.31;;;11.44;59.96
83100;BME280;72972;51.784;4.660;2024-03-02T11:38:09;100134.25;;;11.57;60.16
83100;BME280;72972;51.784;4.660;2024-03-02T11:40:35;100138.44;;;11.66;59.53
83100;BME280;72972;51.784;4.660;2024-03-02T11:43:02;100131.63;;;11.75;59.45
83100;BME280;72972;51.784;4.660;2024-03-02T11:45:30;100129.50;;;11.77;59.88
83100;BME280;72972;51.784;4.660;2024-03-02T11:47:59;100119.78;;;11.75;59.99
83100;BME280;72972;51.784;4.660;2024-03-02T11:53:08;100117.66;;;11.77;58.79
83100;BME280;72972;51.784;4.660;2024-03-02T11:55:36;100122.78;;;11.98;59.55
83100;BME280;72972;51.784;4.660;2024-03-02T11:58:05;100124.66;;;12.04;58.64
83100;BME280;72972;51.784;4.660;2024-03-02T12:00:31;100120.72;;;11.93;59.30
83100;BME280;72972;51.784;4.660;2024-03-02T12:03:05;100116.81;;;11.76;58.57
83100;BME280;72972;51.784;4.660;2024-03-02T12:05:32;100115.50;;;11.85;59.06
83100;BME280;72972;51.784;4.660;2024-03-02T12:08:00;100111.75;;;12.04;59.81
83100;BME280;72972;51.784;4.660;2024-03-02T12:10:27;100122.94;;;12.09;57.23
83100;BME280;72972;51.784;4.660;2024-03-02T12:12:57;100103.03;;;11.83;57.83
83100;BME280;72972;51.784;4.660;2024-03-02T12:15:28;100106.78;;;11.64;57.64
83100;BME280;72972;51.784;4.660;2024-03-02T12:17:58;100098.94;;;11.92;58.31
83100;BME280;72972;51.784;4.660;2024-03-02T12:20:26;100093.31;;;11.87;57.24
83100;BME280;72972;51.784;4.660;2024-03-02T12:22:54;100089.19;;;12.20;56.38
83100;BME280;72972;51.784;4.660;2024-03-02T12:25:22;100083.44;;;12.47;57.01
83100;BME280;72972;51.784;4.660;2024-03-02T12:27:50;100088.88;;;12.71;58.52
83100;BME280;72972;51.784;4.660;2024-03-02T12:30:17;100086.50;;;12.57;57.90
83100;BME280;72972;51.784;4.660;2024-03-02T12:32:47;100095.22;;;12.54;57.54
83100;BME280;72972;51.784;4.660;2024-03-02T12:35:14;100089.31;;;12.50;57.05
83100;BME280;72972;51.784;4.660;2024-03-02T12:37:47;100085.47;;;12.33;56.72
83100;BME280;72972;51.784;4.660;2024-03-02T12:40:15;100071.44;;;11.98;56.29
83100;BME280;72972;51.784;4.660;2024-03-02T12:42:43;100075.94;;;11.93;57.17
83100;BME280;72972;51.784;4.660;2024-03-02T12:45:09;100076.78;;;12.11;58.26
83100;BME280;72972;51.784;4.660;2024-03-02T12:47:39;100075.53;;;12.14;59.79
83100;BME280;72972;51.784;4.660;2024-03-02T12:50:06;100072.38;;;12.10;57.89
83100;BME280;72972;51.784;4.660;2024-03-02T12:52:33;100068.84;;;12.28;56.86
83100;BME280;72972;51.784;4.660;2024-03-02T12:55:04;100054.69;;;12.24;57.78
83100;BME280;72972;51.784;4.660;2024-03-02T12:57:32;100056.25;;;11.96;57.50
83100;BME280;72972;51.784;4.660;2024-03-02T13:00:28;100058.47;;;11.81;58.01
83100;BME280;72972;51.784;4.660;2024-03-02T13:02:56;100056.69;;;11.93;58.81
83100;BME280;72972;51.784;4.660;2024-03-02T13:05:30;100045.25;;;11.96;58.22